sensor_id;sensor_type;location;lat;lon;timestamp;pressure;altitude;pressure_sealevel;temperature;humidity
23446;BME280;11895;48.738;9.320;2023-04-24T00:00:36;97762.09;;;13.70;100.00
23446;BME280;11895;48.738;9.320;2023-04-24T00:03:05;97757.31;;;13.74;100.00
23446;BME280;11895;48.738;9.320;2023-04-24T00:05:34;97761.44;;;13.67;100.00
23446;BME280;11895;48.738;9.320;2023-04-24T00:08:02;97750.63;;;13.67;100.00
23446;BME280;11895;48.738;9.320;2023-04-24T00:10:30;97755.81;;;13.70;100.00
23446;BME280;11895;48.738;9.320;2023-04-24T00:12:58;97757.66;;;13.69;100.00
23446;BME280;11895;48.738;9.320;2023-04-24T00:15:27;97762.72;;;13.74;100.00
23446;BME280;11895;48.738;9.320;2023-04-24T00:17:54;97767.03;;;13.76;100.00
23446;BME280;11895;48.738;9.320;2023-04-24T00:20:22;97765.09;;;13.78;100.00
23446;BME280;11895;48.738;9.320;2023-04-24T00:22:52;97758.91;;;13.76;100.00
23446;BME280;11895;48.738;9.320;2023-04-24T00:25:23;97764.09;;;13.79;100.00
23446;BME280;11895;48.738;9.320;2023-04-24T00:27:50;97780.16;;;13.70;100.00
23446;BME280;11895;48.738;9.320;2023-04-24T00:30:18;97781.38;;;13.66;100.00
23446;BME280;11895;48.738;9.320;2023-04-24T00:32:46;97780.06;;;13.10;100.00
23446;BME280;11895;48.738;9.320;2023-04-24T00:35:14;97784.88;;;12.69;100.00
23446;BME280;11895;48.738;9.320;2023-04-24T00:37:43;97777.44;;;13.09;100.00
23446;BME280;11895;48.738;9.320;2023-04-24T00:40:11;97765.44;;;13.00;100.00
23446;BME280;11895;48.738;9.320;2023-04-24T00:42:40;97774.06;;;13.18;100.00
23446;BME280;11895;48.738;9.320;2023-04-24T00:45:09;97770.09;;;13.11;100.00
23446;BME280;11895;48.738;9.320;2023-04-24T00:47:37;97771.44;;;12.93;100.00
23446;BME280;11895;48.738;9.320;2023-04-24T00:50:07;97775.94;;;13.05;100.00
23446;BME280;11895;48.738;9.320;2023-04-24T00:52:35;97768.88;;;13.28;100.00
23446;BME280;11895;48.738;9.320;2023-04-24T00:55:03;97760.59;;;13.42;100.00
23446;BME280;11895;48.738;9.320;2023-04-24T00:57:31;97761.06;;;13.36;100.00
23446;BME280;11895;48.738;9.320;2023-04-24T00:59:59;97756.63;;;13.35;100.00
23446;BME280;11895;48.738;9.320;2023-04-24T01:02:27;97761.97;;;13.24;100.00
23446;BME280;11895;48.738;9.320;2023-04-24T01:04:57;97753.59;;;13.40;100.00
23446;BME280;11895;48.738;9.320;2023-04-24T01:07:25;97751.56;;;13.54;100.00
23446;BME280;11895;48.738;9.320;2023-04-24T01:09:53;97747.34;;;13.74;100.00
23446;BME280;11895;48.738;9.320;2023-04-24T01:12:21;97739.97;;;13.76;100.00
23446;BME280;11895;48.738;9.320;2023-04-24T01:14:49;97741.13;;;13.96;100.00
23446;BME280;11895;48.738;9.320;2023-04-24T01:17:18;97740.16;;;13.97;100.00
23446;BME280;11895;48.738;9.320;2023-04-24T01:19:47;97735.34;;;13.89;100.00
23446;BME280;11895;48.738;9.320;2023-04-24T01:22:15;97737.44;;;13.97;100.00
23446;BME280;11895;48.738;9.320;2023-04-24T01:24:44;97734.16;;;14.05;100.00
23446;BME280;11895;48.738;9.320;2023-04-24T01:27:13;97733.56;;;14.12;100.00
23446;BME280;11895;48.738;9.320;2023-04-24T01:29:41;97728.72;;;14.05;100.00
23446;BME280;11895;48.738;9.320;2023-04-24T01:32:10;97729.44;;;13.96;100.00
23446;BME280;11895;48.738;9.320;2023-04-24T01:34:42;97731.91;;;13.99;100.00
23446;BME280;11895;48.738;9.320;2023-04-24T01:37:10;97729.84;;;14.02;100.00
23446;BME280;11895;48.738;9.320;2023-04-24T01:39:38;97731.31;;;14.06;100.00
23446;BME280;11895;48.738;9.320;2023-04-24T01:42:06;97722.69;;;14.01;100.00
23446;BME280;11895;48.738;9.320;2023-04-24T01:44:34;97722.16;;;13.85;100.00
23446;BME280;11895;48.738;9.320;2023-04-24T01:47:04;97720.88;;;13.78;100.00
23446;BME280;11895;48.738;9.320;2023-04-24T01:49:32;97725.06;;;13.71;100.00
23446;BME280;11895;48.738;9.320;2023-04-24T01:52:00;97713.16;;;13.73;100.00
23446;BME280;11895;48.738;9.320;2023-04-24T01:54:30;97721.03;;;13.52;100.00
23446;BME280;11895;48.738;9.320;2023-04-24T01:56:58;97732.69;;;13.42;100.00
23446;BME280;11895;48.738;9.320;2023-04-24T01:59:28;97722.75;;;13.53;100.00
23446;BME280;11895;48.738;9.320;2023-04-24T02:01:57;97722.22;;;13.37;100.00
23446;BME280;11895;48.738;9.320;2023-04-24T02:04:29;97719.81;;;13.45;100.00
23446;BME280;11895;48.738;9.320;2023-04-24T02:06:57;97718.69;;;13.24;100.00
23446;BME280;11895;48.738;9.320;2023-04-24T02:09:25;97726.25;;;13.55;100.00
23446;BME280;11895;48.738;9.320;2023-04-24T02:11:52;97719.34;;;13.15;100.00
23446;BME280;11895;48.738;9.320;2023-04-24T02:14:20;97730.28;;;13.26;100.00
23446;BME280;11895;48.738;9.320;2023-04-24T02:16:47;97733.25;;;13.34;100.00
23446;BME280;11895;48.738;9.320;2023-04-24T02:19:15;97718.59;;;13.12;100.00
23446;BME280;11895;48.738;9.320;2023-04-24T02:21:43;97725.59;;;13.28;100.00
23446;BME280;11895;48.738;9.320;2023-04-24T02:24:11;97731.69;;;13.43;100.00
23446;BME280;11895;48.738;9.320;2023-04-24T02:26:39;97721.53;;;13.46;100.00
23446;BME280;11895;48.738;9.320;2023-04-24T02:29:06;97731.31;;;13.36;100.00
23446;BME280;11895;48.738;9.320;2023-04-24T02:31:34;97719.44;;;13.50;100.00
23446;BME280;11895;48.738;9.320;2023-04-24T02:34:02;97718.63;;;13.60;100.00
23446;BME280;11895;48.738;9.320;2023-04-24T02:36:30;97720.41;;;13.49;100.00
23446;BME280;11895;48.738;9.320;2023-04-24T02:38:58;97721.03;;;13.52;100.00
23446;BME280;11895;48.738;9.320;2023-04-24T02:41:26;97721.03;;;13.52;100.00
23446;BME280;11895;48.738;9.320;2023-04-24T02:44:22;97724.88;;;13.26;100.00
23446;BME280;11895;48.738;9.320;2023-04-24T02:46:51;97728.47;;;13.37;100.00
23446;BME280;11895;48.738;9.320;2023-04-24T02:49:19;97734.06;;;13.47;100.00
23446;BME280;11895;48.738;9.320;2023-04-24T02:51:47;97731.81;;;13.65;100.00
23446;BME280;11895;48.738;9.320;2023-04-24T02:54:15;97727.03;;;13.69;100.00
23446;BME280;11895;48.738;9.320;2023-04-24T02:56:42;97726.31;;;13.78;100.00
23446;BME280;11895;48.738;9.320;2023-04-24T02:59:10;97728.75;;;13.70;100.00
23446;BME280;11895;48.738;9.320;2023-04-24T03:01:38;97722.72;;;13.77;100.00
23446;BME280;11895;48.738;9.320;2023-04-24T03:04:08;97732.69;;;13.77;100.00
23446;BME280;11895;48.738;9.320;2023-04-24T03:06:38;97731.97;;;13.75;100.00
23446;BME280;11895;48.738;9.320;2023-04-24T03:09:09;97728.31;;;13.87;100.00
23446;BME280;11895;48.738;9.320;2023-04-24T03:11:38;97727.84;;;13.93;100.00
23446;BME280;11895;48.738;9.320;2023-04-24T03:14:08;97721.44;;;13.94;100.00
23446;BME280;11895;48.738;9.320;2023-04-24T03:16:37;97725.38;;;13.90;100.00
23446;BME280;11895;48.738;9.320;2023-04-24T03:19:06;97723.38;;;13.92;100.00
23446;BME280;11895;48.738;9.320;2023-04-24T03:21:41;97708.13;;;13.80;100.00
23446;BME280;11895;48.738;9.320;2023-04-24T03:24:10;97712.88;;;13.41;100.00
23446;BME280;11895;48.738;9.320;2023-04-24T03:26:38;97712.97;;;12.79;100.00
23446;BME280;11895;48.738;9.320;2023-04-24T03:29:27;97709.69;;;12.50;100.00
23446;BME280;11895;48.738;9.320;2023-04-24T03:31:57;97718.19;;;12.69;100.00
23446;BME280;11895;48.738;9.320;2023-04-24T03:34:26;97728.59;;;12.50;100.00
23446;BME280;11895;48.738;9.320;2023-04-24T03:36:54;97725.44;;;12.69;100.00
23446;BME280;11895;48.738;9.320;2023-04-24T03:39:22;97728.28;;;12.42;100.00
23446;BME280;11895;48.738;9.320;2023-04-24T03:41:55;97730.44;;;12.49;100.00
23446;BME280;11895;48.738;9.320;2023-04-24T03:44:32;97726.75;;;12.63;100.00
23446;BME280;11895;48.738;9.320;2023-04-24T03:47:05;97733.88;;;12.51;100.00
23446;BME280;11895;48.738;9.320;2023-04-24T03:49:35;97726.34;;;12.44;100.00
23446;BME280;11895;48.738;9.320;2023-04-24T03:52:02;97727.38;;;12.67;100.00
23446;BME280;11895;48.738;9.320;2023-04-24T03:54:30;97727.63;;;12.13;100.00
23446;BME280;11895;48.738;9.320;2023-04-24T03:57:00;97728.19;;;12.30;100.00
23446;BME280;11895;48.738;9.320;2023-04-24T03:59:31;97736.38;;;12.54;100.00
23446;BME280;11895;48.738;9.320;2023-04-24T04:02:10;97729.38;;;12.01;100.00
23446;BME280;11895;48.738;9.320;2023-04-24T04:04:38;97721.16;;;12.28;100.00
23446;BME280;11895;48.738;9.320;2023-04-24T04:07:06;97730.66;;;11.95;100.00
23446;BME280;11895;48.738;9.320;2023-04-24T04:09:35;97735.50;;;11.90;100.00
23446;BME280;11895;48.738;9.320;2023-04-24T04:12:05;97735.66;;;12.14;100.00
23446;BME280;11895;48.738;9.320;2023-04-24T04:14:35;97729.66;;;11.83;100.00
23446;BME280;11895;48.738;9.320;2023-04-24T04:17:06;97745.97;;;12.07;100.00
23446;BME280;11895;48.738;9.320;2023-04-24T04:19:35;97740.59;;;12.07;100.00
23446;BME280;11895;48.738;9.320;2023-04-24T04:22:03;97746.44;;;12.14;100.00
23446;BME280;11895;48.738;9.320;2023-04-24T04:24:41;97750.97;;;12.14;100.00
23446;BME280;11895;48.738;9.320;2023-04-24T04:27:10;97751.50;;;12.44;100.00
23446;BME280;11895;48.738;9.320;2023-04-24T04:30:14;97763.47;;;12.27;100.00
23446;BME280;11895;48.738;9.320;2023-04-24T04:32:50;97758.84;;;12.55;100.00
23446;BME280;11895;48.738;9.320;2023-04-24T04:35:19;97768.28;;;12.86;100.00
23446;BME280;11895;48.738;9.320;2023-04-24T04:37:51;97779.47;;;12.81;100.00
23446;BME280;11895;48.738;9.320;2023-04-24T04:40:33;97797.06;;;12.87;100.00
23446;BME280;11895;48.738;9.320;2023-04-24T04:43:05;97819.44;;;12.51;100.00
23446;BME280;11895;48.738;9.320;2023-04-24T04:45:43;97824.91;;;11.71;100.00
23446;BME280;11895;48.738;9.320;2023-04-24T04:48:28;97833.75;;;10.91;100.00
23446;BME280;11895;48.738;9.320;2023-04-24T04:51:00;97847.63;;;10.70;100.00
23446;BME280;11895;48.738;9.320;2023-04-24T04:53:29;97849.59;;;10.38;100.00
23446;BME280;11895;48.738;9.320;2023-04-24T04:55:58;97859.78;;;10.33;100.00
23446;BME280;11895;48.738;9.320;2023-04-24T04:58:34;97863.53;;;10.31;100.00
23446;BME280;11895;48.738;9.320;2023-04-24T05:01:06;97864.75;;;10.25;100.00
23446;BME280;11895;48.738;9.320;2023-04-24T05:03:40;97874.28;;;10.15;100.00
23446;BME280;11895;48.738;9.320;2023-04-24T05:06:12;97865.00;;;10.20;100.00
23446;BME280;11895;48.738;9.320;2023-04-24T05:08:40;97868.22;;;9.97;100.00
23446;BME280;11895;48.738;9.320;2023-04-24T05:11:14;97867.44;;;10.25;100.00
23446;BME280;11895;48.738;9.320;2023-04-24T05:13:42;97867.84;;;10.33;100.00
23446;BME280;11895;48.738;9.320;2023-04-24T05:16:18;97882.41;;;10.45;100.00
23446;BME280;11895;48.738;9.320;2023-04-24T05:18:47;97885.41;;;10.24;100.00
23446;BME280;11895;48.738;9.320;2023-04-24T05:21:21;97892.69;;;10.22;100.00
23446;BME280;11895;48.738;9.320;2023-04-24T05:23:51;97888.81;;;10.42;100.00
23446;BME280;11895;48.738;9.320;2023-04-24T05:26:36;97899.78;;;10.39;100.00
23446;BME280;11895;48.738;9.320;2023-04-24T05:29:08;97900.38;;;10.44;100.00
23446;BME280;11895;48.738;9.320;2023-04-24T05:31:36;97914.28;;;10.37;100.00
23446;BME280;11895;48.738;9.320;2023-04-24T05:34:05;97906.34;;;10.49;100.00
23446;BME280;11895;48.738;9.320;2023-04-24T05:46:18;97931.38;;;10.66;100.00
23446;BME280;11895;48.738;9.320;2023-04-24T05:48:47;97935.44;;;10.87;100.00
23446;BME280;11895;48.738;9.320;2023-04-24T05:51:15;97941.13;;;10.97;100.00
23446;BME280;11895;48.738;9.320;2023-04-24T05:53:42;97942.66;;;11.01;100.00
23446;BME280;11895;48.738;9.320;2023-04-24T05:56:12;97944.63;;;11.27;100.00
23446;BME280;11895;48.738;9.320;2023-04-24T05:58:40;97947.59;;;11.23;100.00
23446;BME280;11895;48.738;9.320;2023-04-24T06:01:09;97951.25;;;11.22;100.00
23446;BME280;11895;48.738;9.320;2023-04-24T06:03:39;97955.56;;;11.39;100.00
23446;BME280;11895;48.738;9.320;2023-04-24T06:06:07;97962.69;;;11.54;100.00
23446;BME280;11895;48.738;9.320;2023-04-24T06:08:38;97957.28;;;11.54;100.00
23446;BME280;11895;48.738;9.320;2023-04-24T06:11:06;97953.72;;;11.68;100.00
23446;BME280;11895;48.738;9.320;2023-04-24T06:13:34;97961.22;;;11.77;100.00
23446;BME280;11895;48.738;9.320;2023-04-24T06:16:21;97956.00;;;11.88;100.00
23446;BME280;11895;48.738;9.320;2023-04-24T06:18:55;97950.72;;;11.72;100.00
23446;BME280;11895;48.738;9.320;2023-04-24T06:21:23;97942.78;;;11.42;100.00
23446;BME280;11895;48.738;9.320;2023-04-24T06:23:51;97945.63;;;11.53;100.00
23446;BME280;11895;48.738;9.320;2023-04-24T06:26:24;97944.69;;;11.40;100.00
23446;BME280;11895;48.738;9.320;2023-04-24T06:28:54;97942.78;;;11.42;100.00
23446;BME280;11895;48.738;9.320;2023-04-24T06:31:22;97934.56;;;11.44;100.00
23446;BME280;11895;48.738;9.320;2023-04-24T06:33:50;97938.03;;;11.46;100.00
23446;BME280;11895;48.738;9.320;2023-04-24T06:36:18;97941.78;;;11.57;100.00
23446;BME280;11895;48.738;9.320;2023-04-24T06:38:46;97941.50;;;11.62;100.00
23446;BME280;11895;48.738;9.320;2023-04-24T06:41:14;97947.00;;;11.46;100.00
23446;BME280;11895;48.738;9.320;2023-04-24T06:43:41;97937.97;;;11.74;100.00
23446;BME280;11895;48.738;9.320;2023-04-24T06:46:09;97947.72;;;11.77;100.00
23446;BME280;11895;48.738;9.320;2023-04-24T06:48:37;97933.66;;;11.72;100.00
23446;BME280;11895;48.738;9.320;2023-04-24T06:51:05;97942.19;;;11.51;100.00
23446;BME280;11895;48.738;9.320;2023-04-24T06:53:33;97940.44;;;11.50;100.00
23446;BME280;11895;48.738;9.320;2023-04-24T06:56:00;97947.59;;;11.51;100.00
23446;BME280;11895;48.738;9.320;2023-04-24T06:58:31;97943.69;;;11.55;100.00
23446;BME280;11895;48.738;9.320;2023-04-24T07:00:59;97944.09;;;11.49;100.00
23446;BME280;11895;48.738;9.320;2023-04-24T07:03:27;97945.19;;;11.47;100.00
23446;BME280;11895;48.738;9.320;2023-04-24T07:05:55;97944.66;;;11.69;100.00
23446;BME280;11895;48.738;9.320;2023-04-24T07:08:23;97952.19;;;11.49;100.00
23446;BME280;11895;48.738;9.320;2023-04-24T07:10:51;97943.81;;;11.40;100.00
23446;BME280;11895;48.738;9.320;2023-04-24T07:13:19;97941.97;;;11.40;100.00
23446;BME280;11895;48.738;9.320;2023-04-24T07:15:47;97936.25;;;11.73;100.00
23446;BME280;11895;48.738;9.320;2023-04-24T07:18:17;97937.75;;;12.06;100.00
23446;BME280;11895;48.738;9.320;2023-04-24T07:20:45;97934.63;;;11.85;100.00
23446;BME280;11895;48.738;9.320;2023-04-24T07:23:13;97929.94;;;12.01;100.00
23446;BME280;11895;48.738;9.320;2023-04-24T07:25:41;97942.97;;;12.22;100.00
23446;BME280;11895;48.738;9.320;2023-04-24T07:28:09;97931.38;;;12.07;100.00
23446;BME280;11895;48.738;9.320;2023-04-24T07:30:40;97945.72;;;12.47;100.00
23446;BME280;11895;48.738;9.320;2023-04-24T07:33:08;97931.13;;;13.15;100.00
23446;BME280;11895;48.738;9.320;2023-04-24T07:35:35;97942.28;;;13.23;100.00
23446;BME280;11895;48.738;9.320;2023-04-24T07:38:04;97947.13;;;13.44;100.00
23446;BME280;11895;48.738;9.320;2023-04-24T07:40:32;97950.69;;;13.19;100.00
23446;BME280;11895;48.738;9.320;2023-04-24T07:42:59;97954.38;;;13.18;100.00
23446;BME280;11895;48.738;9.320;2023-04-24T07:45:27;97973.06;;;12.82;100.00
23446;BME280;11895;48.738;9.320;2023-04-24T07:47:55;97973.38;;;12.91;100.00
23446;BME280;11895;48.738;9.320;2023-04-24T07:50:23;97967.97;;;13.03;100.00
23446;BME280;11895;48.738;9.320;2023-04-24T07:52:51;97968.25;;;13.26;100.00
23446;BME280;11895;48.738;9.320;2023-04-24T07:55:19;97976.00;;;13.69;100.00
23446;BME280;11895;48.738;9.320;2023-04-24T07:57:51;97962.84;;;13.88;100.00
23446;BME280;11895;48.738;9.320;2023-04-24T08:00:19;97979.13;;;14.36;100.00
23446;BME280;11895;48.738;9.320;2023-04-24T08:02:48;97972.81;;;14.11;100.00
23446;BME280;11895;48.738;9.320;2023-04-24T08:05:17;97976.03;;;14.17;100.00
23446;BME280;11895;48.738;9.320;2023-04-24T08:07:46;97978.53;;;14.56;100.00
23446;BME280;11895;48.738;9.320;2023-04-24T08:10:17;97990.44;;;14.54;100.00
23446;BME280;11895;48.738;9.320;2023-04-24T08:12:55;97992.63;;;14.49;100.00
23446;BME280;11895;48.738;9.320;2023-04-24T08:15:23;97998.69;;;14.52;100.00
23446;BME280;11895;48.738;9.320;2023-04-24T08:17:51;97999.03;;;14.72;100.00
23446;BME280;11895;48.738;9.320;2023-04-24T08:20:19;97986.81;;;15.12;100.00
23446;BME280;11895;48.738;9.320;2023-04-24T08:22:47;97980.78;;;15.09;100.00
23446;BME280;11895;48.738;9.320;2023-04-24T08:25:16;98009.47;;;15.00;100.00
23446;BME280;11895;48.738;9.320;2023-04-24T08:27:45;98009.53;;;15.23;100.00
23446;BME280;11895;48.738;9.320;2023-04-24T08:30:13;98024.47;;;14.93;100.00
23446;BME280;11895;48.738;9.320;2023-04-24T08:32:41;98013.94;;;15.12;100.00
23446;BME280;11895;48.738;9.320;2023-04-24T08:35:11;98025.91;;;14.75;100.00
23446;BME280;11895;48.738;9.320;2023-04-24T08:37:46;98026.72;;;15.34;100.00
23446;BME280;11895;48.738;9.320;2023-04-24T08:40:15;98017.25;;;15.62;100.00
23446;BME280;11895;48.738;9.320;2023-04-24T08:42:44;98024.47;;;14.93;100.00
23446;BME280;11895;48.738;9.320;2023-04-24T08:45:23;98031.38;;;14.25;100.00
23446;BME280;11895;48.738;9.320;2023-04-24T08:47:53;98041.19;;;14.39;100.00
23446;BME280;11895;48.738;9.320;2023-04-24T08:50:22;98022.75;;;14.57;100.00
23446;BME280;11895;48.738;9.320;2023-04-24T08:52:51;98034.22;;;14.60;100.00
23446;BME280;11895;48.738;9.320;2023-04-24T08:55:21;98036.84;;;15.08;100.00
23446;BME280;11895;48.738;9.320;2023-04-24T08:57:53;98039.56;;;15.08;99.28
23446;BME280;11895;48.738;9.320;2023-04-24T09:00:22;98034.88;;;14.99;94.10
23446;BME280;11895;48.738;9.320;2023-04-24T09:02:52;98043.44;;;14.82;96.65
23446;BME280;11895;48.738;9.320;2023-04-24T09:05:22;98027.25;;;15.04;95.47
23446;BME280;11895;48.738;9.320;2023-04-24T09:07:56;98031.22;;;15.23;95.87
23446;BME280;11895;48.738;9.320;2023-04-24T09:10:25;98034.13;;;14.97;94.78
23446;BME280;11895;48.738;9.320;2023-04-24T09:12:54;98034.00;;;14.99;94.67
23446;BME280;11895;48.738;9.320;2023-04-24T09:15:26;98038.84;;;15.17;96.75
23446;BME280;11895;48.738;9.320;2023-04-24T09:17:56;98041.94;;;14.78;97.15
23446;BME280;11895;48.738;9.320;2023-04-24T09:20:24;98082.72;;;14.76;97.07
23446;BME280;11895;48.738;9.320;2023-04-24T09:22:56;98043.69;;;15.14;94.71
23446;BME280;11895;48.738;9.320;2023-04-24T09:25:35;98059.16;;;15.47;92.03
23446;BME280;11895;48.738;9.320;2023-04-24T09:28:04;98061.91;;;15.12;99.64
23446;BME280;11895;48.738;9.320;2023-04-24T09:30:34;98068.16;;;14.40;97.78
23446;BME280;11895;48.738;9.320;2023-04-24T09:33:15;98067.97;;;14.80;99.76
23446;BME280;11895;48.738;9.320;2023-04-24T09:35:49;98092.72;;;15.11;95.24
23446;BME280;11895;48.738;9.320;2023-04-24T09:38:18;98069.28;;;14.38;92.89
23446;BME280;11895;48.738;9.320;2023-04-24T09:40:47;98071.88;;;14.52;97.33
23446;BME280;11895;48.738;9.320;2023-04-24T09:43:15;98098.13;;;14.76;98.14
23446;BME280;11895;48.738;9.320;2023-04-24T09:45:43;98088.66;;;14.57;95.94
23446;BME280;11895;48.738;9.320;2023-04-24T09:48:11;98081.72;;;14.53;92.25
23446;BME280;11895;48.738;9.320;2023-04-24T09:50:38;98063.53;;;14.55;89.65
23446;BME280;11895;48.738;9.320;2023-04-24T09:53:07;98066.44;;;14.76;84.95
23446;BME280;11895;48.738;9.320;2023-04-24T09:55:40;98074.91;;;14.35;79.12
23446;BME280;11895;48.738;9.320;2023-04-24T09:58:13;98075.97;;;14.58;73.25
23446;BME280;11895;48.738;9.320;2023-04-24T10:00:43;98109.22;;;14.84;68.26
23446;BME280;11895;48.738;9.320;2023-04-24T10:03:12;98076.28;;;15.36;69.76
23446;BME280;11895;48.738;9.320;2023-04-24T10:05:40;98098.91;;;15.59;63.67
23446;BME280;11895;48.738;9.320;2023-04-24T10:08:11;98089.38;;;16.11;64.20
23446;BME280;11895;48.738;9.320;2023-04-24T10:10:43;98097.75;;;16.42;59.25
23446;BME280;11895;48.738;9.320;2023-04-24T10:13:13;98094.28;;;15.95;62.74
23446;BME280;11895;48.738;9.320;2023-04-24T10:15:43;98085.91;;;16.09;67.18
23446;BME280;11895;48.738;9.320;2023-04-24T10:18:11;98074.44;;;16.06;67.00
23446;BME280;11895;48.738;9.320;2023-04-24T10:20:40;98098.25;;;16.13;66.64
23446;BME280;11895;48.738;9.320;2023-04-24T10:23:08;98089.75;;;15.96;63.64
23446;BME280;11895;48.738;9.320;2023-04-24T10:25:38;98091.69;;;15.71;65.93
23446;BME280;11895;48.738;9.320;2023-04-24T10:28:06;98112.16;;;15.64;74.47
23446;BME280;11895;48.738;9.320;2023-04-24T10:30:37;98097.75;;;15.75;69.76
23446;BME280;11895;48.738;9.320;2023-04-24T10:33:07;98103.44;;;15.94;63.55
23446;BME280;11895;48.738;9.320;2023-04-24T10:35:39;98161.19;;;15.85;59.00
23446;BME280;11895;48.738;9.320;2023-04-24T10:38:13;98093.13;;;15.53;59.96
23446;BME280;11895;48.738;9.320;2023-04-24T10:40:46;98109.31;;;15.65;61.86
23446;BME280;11895;48.738;9.320;2023-04-24T10:43:17;98088.88;;;16.40;59.20
23446;BME280;11895;48.738;9.320;2023-04-24T10:46:03;98096.66;;;16.99;58.02
23446;BME280;11895;48.738;9.320;2023-04-24T10:48:34;98100.88;;;17.56;55.29
23446;BME280;11895;48.738;9.320;2023-04-24T10:51:02;98112.41;;;17.69;49.89
23446;BME280;11895;48.738;9.320;2023-04-24T10:53:31;98109.78;;;16.94;51.50
23446;BME280;11895;48.738;9.320;2023-04-24T10:58:45;98135.34;;;16.26;53.66
23446;BME280;11895;48.738;9.320;2023-04-24T11:01:29;98126.16;;;15.82;60.83
23446;BME280;11895;48.738;9.320;2023-04-24T11:04:02;98159.00;;;14.96;71.09
23446;BME280;11895;48.738;9.320;2023-04-24T11:06:32;98149.06;;;15.07;71.31
23446;BME280;11895;48.738;9.320;2023-04-24T11:09:09;98163.22;;;14.50;78.37
23446;BME280;11895;48.738;9.320;2023-04-24T11:11:45;98137.81;;;14.77;79.03
23446;BME280;11895;48.738;9.320;2023-04-24T11:14:20;98151.66;;;14.85;80.59
23446;BME280;11895;48.738;9.320;2023-04-24T11:16:53;98142.88;;;14.32;84.70
23446;BME280;11895;48.738;9.320;2023-04-24T11:19:26;98157.09;;;14.23;87.55
23446;BME280;11895;48.738;9.320;2023-04-24T11:21:59;98167.69;;;14.26;88.27
23446;BME280;11895;48.738;9.320;2023-04-24T11:27:16;98165.09;;;14.37;88.84
23446;BME280;11895;48.738;9.320;2023-04-24T11:35:08;98177.78;;;14.36;88.69
23446;BME280;11895;48.738;9.320;2023-04-24T11:37:48;98160.41;;;14.39;88.13
23446;BME280;11895;48.738;9.320;2023-04-24T11:40:37;98173.00;;;14.53;90.31
23446;BME280;11895;48.738;9.320;2023-04-24T11:43:06;98183.19;;;14.49;90.27
23446;BME280;11895;48.738;9.320;2023-04-24T11:45:34;98164.59;;;15.05;81.53
23446;BME280;11895;48.738;9.320;2023-04-24T11:48:03;98167.34;;;15.52;79.90
23446;BME280;11895;48.738;9.320;2023-04-24T11:50:31;98167.69;;;16.06;72.79
23446;BME280;11895;48.738;9.320;2023-04-24T11:53:01;98158.06;;;16.36;67.68
23446;BME280;11895;48.738;9.320;2023-04-24T11:55:30;98174.06;;;15.94;69.05
23446;BME280;11895;48.738;9.320;2023-04-24T11:57:59;98177.47;;;15.74;74.22
23446;BME280;11895;48.738;9.320;2023-04-24T12:00:29;98189.31;;;15.13;79.12
23446;BME280;11895;48.738;9.320;2023-04-24T12:03:10;98207.25;;;14.03;100.00
23446;BME280;11895;48.738;9.320;2023-04-24T12:05:40;98215.38;;;12.96;100.00
23446;BME280;11895;48.738;9.320;2023-04-24T12:08:09;98202.22;;;13.04;100.00
23446;BME280;11895;48.738;9.320;2023-04-24T12:10:36;98198.31;;;13.62;100.00
23446;BME280;11895;48.738;9.320;2023-04-24T12:13:05;98218.31;;;14.12;100.00
23446;BME280;11895;48.738;9.320;2023-04-24T12:15:33;98205.72;;;14.24;100.00
23446;BME280;11895;48.738;9.320;2023-04-24T12:18:01;98219.38;;;14.61;94.87
23446;BME280;11895;48.738;9.320;2023-04-24T12:20:30;98190.09;;;14.66;90.79
23446;BME280;11895;48.738;9.320;2023-04-24T12:23:02;98194.94;;;15.10;91.50
23446;BME280;11895;48.738;9.320;2023-04-24T12:25:33;98194.56;;;15.63;87.34
23446;BME280;11895;48.738;9.320;2023-04-24T12:30:34;98200.91;;;14.79;89.29
23446;BME280;11895;48.738;9.320;2023-04-24T12:33:35;98216.78;;;14.34;100.00
23446;BME280;11895;48.738;9.320;2023-04-24T12:36:04;98207.81;;;14.08;100.00
23446;BME280;11895;48.738;9.320;2023-04-24T12:38:33;98204.84;;;13.85;100.00
23446;BME280;11895;48.738;9.320;2023-04-24T12:41:11;98200.97;;;14.02;100.00
23446;BME280;11895;48.738;9.320;2023-04-24T12:43:52;98202.69;;;14.29;94.35
23446;BME280;11895;48.738;9.320;2023-04-24T12:46:20;98205.91;;;14.72;92.20
23446;BME280;11895;48.738;9.320;2023-04-24T12:48:49;98195.66;;;14.88;90.98
23446;BME280;11895;48.738;9.320;2023-04-24T12:51:17;98196.19;;;14.57;90.56
23446;BME280;11895;48.738;9.320;2023-04-24T12:53:45;98195.50;;;15.03;87.64
23446;BME280;11895;48.738;9.320;2023-04-24T12:56:13;98195.97;;;15.68;78.95
23446;BME280;11895;48.738;9.320;2023-04-24T12:58:40;98188.00;;;15.89;80.14
23446;BME280;11895;48.738;9.320;2023-04-24T13:01:08;98207.38;;;15.85;82.07
23446;BME280;11895;48.738;9.320;2023-04-24T13:03:36;98202.91;;;15.25;87.40
23446;BME280;11895;48.738;9.320;2023-04-24T13:06:04;98210.19;;;15.00;89.02
23446;BME280;11895;48.738;9.320;2023-04-24T13:08:32;98205.63;;;14.51;98.80
23446;BME280;11895;48.738;9.320;2023-04-24T13:11:02;98216.78;;;14.47;98.22
23446;BME280;11895;48.738;9.320;2023-04-24T13:13:30;98217.88;;;14.19;99.84
23446;BME280;11895;48.738;9.320;2023-04-24T13:15:58;98205.63;;;14.00;100.00
23446;BME280;11895;48.738;9.320;2023-04-24T13:18:25;98209.41;;;14.23;99.66
23446;BME280;11895;48.738;9.320;2023-04-24T13:20:53;98223.91;;;13.84;100.00
23446;BME280;11895;48.738;9.320;2023-04-24T13:23:21;98208.22;;;13.89;100.00
23446;BME280;11895;48.738;9.320;2023-04-24T13:25:50;98210.59;;;13.41;100.00
23446;BME280;11895;48.738;9.320;2023-04-24T13:28:17;98211.84;;;13.23;100.00
23446;BME280;11895;48.738;9.320;2023-04-24T13:30:47;98223.13;;;12.88;100.00